Time;durP1;ratioP1;P1;durP2;ratioP2;P2;SDS_P1;SDS_P2;PMS_P1;PMS_P2;Temp;Humidity;BMP_temperature;BMP_pressure;BME280_temperature;BME280_humidity;BME280_pressure;Samples;Min_cycle;Max_cycle;Signal;HPM_P1;HPM_P2
2022/10/01 00:02:07;;;;;;;16.60;9.00;;;11.40;99.90;;;;;;4997555;28;20529;-75
2022/10/01 00:04:36;;;;;;;15.10;7.97;;;11.50;99.90;;;;;;4997087;28;20077;-75
2022/10/01 00:07:06;;;;;;;18.33;9.23;;;11.50;99.90;;;;;;4996413;28;20062;-76
2022/10/01 00:09:31;;;;;;;17.33;9.68;;;11.50;99.90;;;;;;4995697;28;20065;-76
2022/10/01 00:11:58;;;;;;;17.67;9.50;;;11.40;99.90;;;;;;4996904;28;20050;-75
2022/10/01 00:14:25;;;;;;;16.40;8.50;;;11.40;99.90;;;;;;4996651;28;20050;-73
2022/10/01 00:16:51;;;;;;;;;;;11.40;99.90;;;;;;4996958;28;20402;-73
2022/10/01 00:19:17;;;;;;;23.67;9.10;;;11.50;99.90;;;;;;4996563;28;19922;-74
2022/10/01 00:21:43;;;;;;;16.73;8.15;;;11.50;99.90;;;;;;4997084;28;20065;-76
2022/10/01 00:24:11;;;;;;;18.90;9.63;;;11.50;99.90;;;;;;4999122;28;20106;-75
2022/10/01 00:26:37;;;;;;;16.15;7.93;;;11.40;99.90;;;;;;5001733;28;20082;-84
2022/10/01 00:29:10;;;;;;;18.92;9.13;;;11.40;99.90;;;;;;5000463;28;20078;-78
2022/10/01 00:31:36;;;;;;;18.10;9.85;;;11.40;99.90;;;;;;5000690;28;20050;-76
2022/10/01 00:34:03;;;;;;;24.65;5.75;;;11.40;99.90;;;;;;5012940;28;20047;-74
2022/10/01 00:36:30;;;;;;;21.90;9.00;;;11.40;99.90;;;;;;4979857;28;20093;-74
2022/10/01 00:39:00;;;;;;;13.57;6.78;;;11.40;99.90;;;;;;4996275;28;20125;-75
2022/10/01 00:41:28;;;;;;;19.15;10.35;;;11.40;99.90;;;;;;4995055;28;20398;-74
2022/10/01 00:44:00;;;;;;;17.88;9.02;;;11.30;99.90;;;;;;4995773;28;20438;-75
2022/10/01 00:46:39;;;;;;;22.98;10.13;;;11.40;99.90;;;;;;4995701;28;20101;-76
2022/10/01 00:49:15;;;;;;;18.63;10.68;;;11.30;99.90;;;;;;4995279;28;20055;-74
2022/10/01 00:51:48;;;;;;;19.00;10.38;;;11.30;99.90;;;;;;4995441;28;20116;-79
2022/10/01 00:54:21;;;;;;;20.95;10.52;;;11.30;99.90;;;;;;4994730;28;20057;-73
2022/10/01 00:56:48;;;;;;;19.17;10.20;;;11.30;99.90;;;;;;4978859;28;20050;-75
2022/10/01 00:59:15;;;;;;;;;;;11.30;99.90;;;;;;4995829;28;20057;-77
2022/10/01 01:01:40;;;;;;;;;;;11.40;99.90;;;;;;4996249;28;19921;-81
2022/10/01 01:04:15;;;;;;;12.53;5.17;;;11.20;99.90;;;;;;4994717;28;19945;-77
2022/10/01 01:06:56;;;;;;;22.60;9.57;;;11.30;99.90;;;;;;4995374;28;20093;-82
2022/10/01 01:09:32;;;;;;;18.95;9.40;;;11.30;99.90;;;;;;4994807;28;20058;-72
2022/10/01 01:12:25;;;;;;;21.17;9.68;;;11.30;99.90;;;;;;4994778;28;20061;-75
2022/10/01 01:15:12;;;;;;;20.05;10.98;;;11.20;99.90;;;;;;4995544;28;20474;-80
2022/10/01 01:17:53;;;;;;;24.42;11.25;;;11.20;99.90;;;;;;4994250;28;20061;-75
2022/10/01 01:20:48;;;;;;;16.92;8.38;;;11.10;99.90;;;;;;4999022;28;20069;-79
2022/10/01 01:23:14;;;;;;;17.08;9.05;;;11.20;99.90;;;;;;4979003;28;20141;-73
2022/10/01 01:26:17;;;;;;;20.88;8.02;;;11.30;99.90;;;;;;4995108;28;20153;-76
2022/10/01 01:28:49;;;;;;;23.08;11.43;;;11.20;99.90;;;;;;4994524;28;20084;-83
2022/10/01 01:31:21;;;;;;;21.67;10.75;;;11.10;99.90;;;;;;4993667;28;20085;-75
2022/10/01 01:33:50;;;;;;;21.33;12.38;;;11.10;99.90;;;;;;4995134;28;20050;-75
2022/10/01 01:36:22;;;;;;;21.20;11.10;;;11.10;99.90;;;;;;4995373;28;20050;-75
2022/10/01 01:38:53;;;;;;;21.50;10.60;;;11.20;99.90;;;;;;4994817;28;20050;-76
2022/10/01 01:41:23;;;;;;;24.60;12.57;;;11.10;99.90;;;;;;4993961;28;20114;-73
2022/10/01 01:43:52;;;;;;;22.90;11.65;;;11.10;99.90;;;;;;4994452;28;20080;-73
2022/10/01 01:46:19;;;;;;;17.70;8.85;;;11.00;99.90;;;;;;4992672;28;20065;-73
2022/10/01 01:48:49;;;;;;;22.05;11.68;;;11.00;99.90;;;;;;4995203;28;20431;-83
2022/10/01 01:51:34;;;;;;;21.00;11.43;;;11.10;99.90;;;;;;4994484;28;20049;-76
2022/10/01 01:54:00;;;;;;;24.48;11.70;;;11.10;99.90;;;;;;4995103;28;20419;-72
2022/10/01 01:56:26;;;;;;;24.55;12.18;;;11.10;99.90;;;;;;4992875;28;20042;-77
2022/10/01 01:58:56;;;;;;;20.60;10.98;;;11.10;99.90;;;;;;4994186;28;20115;-75
2022/10/01 02:01:30;;;;;;;23.38;11.25;;;11.10;99.90;;;;;;4977512;28;20058;-70
2022/10/01 02:03:56;;;;;;;18.33;8.73;;;11.10;99.90;;;;;;4994317;28;20086;-76
2022/10/01 02:06:39;;;;;;;18.70;9.13;;;11.10;99.90;;;;;;4976905;28;20090;-73
2022/10/01 02:09:38;;;;;;;21.88;11.18;;;11.10;99.90;;;;;;4994684;28;20391;-76
2022/10/01 02:12:12;;;;;;;21.10;9.57;;;11.10;99.90;;;;;;4985924;28;20078;-74
2022/10/01 02:14:46;;;;;;;25.02;11.77;;;11.10;99.90;;;;;;4992968;28;20058;-74
2022/10/01 02:17:20;;;;;;;25.35;10.90;;;11.10;99.90;;;;;;4994218;28;20061;-74
2022/10/01 02:20:14;;;;;;;21.35;11.15;;;11.10;99.90;;;;;;4994174;28;20054;-73
2022/10/01 02:22:52;;;;;;;20.75;11.05;;;11.00;99.90;;;;;;4994171;28;20571;-76
2022/10/01 02:25:25;;;;;;;18.75;9.10;;;11.10;99.90;;;;;;5000111;28;20224;-77
2022/10/01 02:28:00;;;;;;;20.33;9.38;;;11.10;99.90;;;;;;5006583;28;20053;-84
2022/10/01 02:30:29;;;;;;;21.10;9.57;;;11.10;99.90;;;;;;5003212;28;20089;-75
2022/10/01 02:32:58;;;;;;;18.98;10.25;;;11.10;99.90;;;;;;4993786;28;20054;-76
2022/10/01 02:35:26;;;;;;;21.25;9.15;;;11.10;99.90;;;;;;4994032;28;20069;-79
2022/10/01 02:37:55;;;;;;;17.48;9.48;;;10.90;99.90;;;;;;4994714;28;20387;-83
2022/10/01 02:40:25;;;;;;;21.65;10.57;;;11.00;99.90;;;;;;4994814;28;20050;-75
2022/10/01 02:42:55;;;;;;;22.48;9.95;;;11.00;99.90;;;;;;4993615;28;20058;-76
2022/10/01 02:45:23;;;;;;;19.67;9.95;;;11.00;99.90;;;;;;4994670;28;20185;-74
2022/10/01 02:48:00;;;;;;;18.42;9.35;;;11.00;99.90;;;;;;4994124;28;20047;-75
2022/10/01 02:50:32;;;;;;;17.55;10.82;;;11.10;99.90;;;;;;4994031;28;20050;-75
2022/10/01 02:53:15;;;;;;;20.58;10.20;;;11.00;99.90;;;;;;4993461;28;20180;-75
2022/10/01 02:55:42;;;;;;;16.42;8.63;;;11.00;99.90;;;;;;4993057;28;20050;-79
2022/10/01 02:58:08;;;;;;;13.85;7.65;;;11.10;99.90;;;;;;4994053;28;20152;-76
2022/10/01 03:00:33;;;;;;;15.05;8.43;;;11.00;99.90;;;;;;4994086;28;20065;-75
2022/10/01 03:02:59;;;;;;;16.42;7.53;;;11.10;99.90;;;;;;4992997;28;20046;-75
2022/10/01 03:05:25;;;;;;;15.60;7.82;;;11.10;99.90;;;;;;4992116;28;20050;-75
2022/10/01 03:07:51;;;;;;;16.42;7.15;;;11.20;99.90;;;;;;4994449;28;20138;-76
2022/10/01 03:10:17;;;;;;;12.50;6.90;;;11.10;99.90;;;;;;4993083;28;20050;-75
2022/10/01 03:12:45;;;;;;;12.40;6.30;;;11.10;99.90;;;;;;4994292;28;20100;-76
2022/10/01 03:15:15;;;;;;;12.18;5.90;;;11.20;99.90;;;;;;4992759;28;20066;-76
2022/10/01 03:17:41;;;;;;;12.40;5.72;;;11.20;99.90;;;;;;4994589;28;20048;-73
2022/10/01 03:20:08;;;;;;;11.40;6.10;;;11.20;99.90;;;;;;4993612;28;20121;-77
2022/10/01 03:22:34;;;;;;;11.40;6.07;;;11.20;99.90;;;;;;4993602;28;20046;-77
2022/10/01 03:24:59;;;;;;;11.20;5.75;;;11.10;99.90;;;;;;4991985;28;20348;-76
2022/10/01 03:27:25;;;;;;;12.27;6.15;;;11.10;99.90;;;;;;4993147;28;20062;-77
2022/10/01 03:29:51;;;;;;;11.77;5.93;;;11.10;99.90;;;;;;4993238;28;20057;-79
2022/10/01 03:32:17;;;;;;;11.13;5.03;;;11.00;99.90;;;;;;4993594;28;20110;-71
2022/10/01 03:34:43;;;;;;;10.90;6.05;;;11.10;99.90;;;;;;5008421;28;20359;-74
2022/10/01 03:37:09;;;;;;;10.38;5.63;;;11.10;99.90;;;;;;4991823;28;20136;-78
2022/10/01 03:39:35;;;;;;;12.40;6.05;;;11.00;99.90;;;;;;4993110;28;20467;-74
2022/10/01 03:42:01;;;;;;;13.45;6.22;;;11.00;99.90;;;;;;4993072;28;20050;-81
2022/10/01 03:44:29;;;;;;;13.63;6.07;;;11.00;99.90;;;;;;4993064;28;20078;-79
2022/10/01 03:46:55;;;;;;;13.70;7.55;;;11.00;99.90;;;;;;4975440;28;20141;-76
2022/10/01 03:49:21;;;;;;;11.95;6.75;;;10.90;99.90;;;;;;4992307;28;20427;-74
2022/10/01 03:51:46;;;;;;;12.57;6.45;;;10.90;99.90;;;;;;4992002;28;20402;-75
2022/10/01 03:54:12;;;;;;;12.38;6.25;;;10.90;99.90;;;;;;4993008;28;20373;-79
2022/10/01 03:56:41;;;;;;;12.57;6.78;;;11.00;99.90;;;;;;5008255;28;20050;-75
2022/10/01 03:59:10;;;;;;;12.57;6.07;;;11.00;99.90;;;;;;4993033;28;20046;-73
2022/10/01 04:01:37;;;;;;;15.65;5.82;;;10.90;99.90;;;;;;4993123;28;20050;-80
2022/10/01 04:04:06;;;;;;;12.77;5.60;;;11.00;99.90;;;;;;4992961;28;20058;-76
2022/10/01 04:06:32;;;;;;;13.88;6.70;;;11.00;99.90;;;;;;4994377;28;20057;-79
2022/10/01 04:08:57;;;;;;;13.85;6.13;;;11.00;99.90;;;;;;4996349;28;20122;-80
2022/10/01 04:11:23;;;;;;;11.93;5.72;;;11.00;99.90;;;;;;4996612;28;20073;-74
2022/10/01 04:13:49;;;;;;;12.07;5.97;;;11.00;99.90;;;;;;4996482;28;20447;-77
2022/10/01 04:16:15;;;;;;;10.13;5.40;;;11.00;99.90;;;;;;4995625;28;20115;-74
2022/10/01 04:18:41;;;;;;;9.98;4.70;;;11.00;99.90;;;;;;4997078;28;20049;-75
2022/10/01 04:21:06;;;;;;;9.98;4.70;;;11.10;99.90;;;;;;4979719;28;20053;-76
2022/10/01 04:23:32;;;;;;;8.52;4.18;;;11.10;99.90;;;;;;4994863;28;20398;-75
2022/10/01 04:26:01;;;;;;;10.15;5.10;;;11.10;99.90;;;;;;5012146;28;20125;-75
2022/10/01 04:28:28;;;;;;;10.68;4.25;;;11.10;99.90;;;;;;4996421;28;20383;-77
2022/10/01 04:33:38;;;;;;;9.88;3.90;;;11.20;99.90;;;;;;4995982;28;20058;-72
2022/10/01 04:36:04;;;;;;;8.43;4.15;;;11.20;99.90;;;;;;4995583;28;20455;-74
2022/10/01 04:38:30;;;;;;;7.78;3.78;;;11.20;99.90;;;;;;4996541;28;20081;-78
2022/10/01 04:40:56;;;;;;;7.47;4.00;;;11.20;99.90;;;;;;5007181;28;20058;-76
2022/10/01 04:43:21;;;;;;;8.40;3.90;;;11.20;99.90;;;;;;5010913;28;20282;-73
2022/10/01 04:45:47;;;;;;;9.40;4.22;;;11.20;99.90;;;;;;4994909;28;20061;-74
2022/10/01 04:48:13;;;;;;;10.18;4.30;;;11.20;99.90;;;;;;4994161;28;20046;-73
2022/10/01 04:50:39;;;;;;;8.65;4.22;;;11.30;99.90;;;;;;4994530;28;20043;-74
2022/10/01 04:53:04;;;;;;;8.13;3.83;;;11.20;99.90;;;;;;4996085;28;20518;-73
2022/10/01 04:55:30;;;;;;;9.35;4.00;;;11.20;99.90;;;;;;4994416;28;20050;-75
2022/10/01 04:57:56;;;;;;;8.15;3.85;;;11.30;99.90;;;;;;4995391;28;20125;-76
2022/10/01 05:00:25;;;;;;;6.20;3.40;;;11.40;99.90;;;;;;4995873;28;20565;-74
2022/10/01 05:02:52;;;;;;;7.35;3.38;;;11.30;99.90;;;;;;4996043;28;20435;-75
2022/10/01 05:05:20;;;;;;;6.40;2.95;;;11.30;99.90;;;;;;4994391;28;20072;-76
2022/10/01 05:07:48;;;;;;;9.18;3.80;;;11.40;99.90;;;;;;4995322;28;20034;-76
2022/10/01 05:10:19;;;;;;;6.78;3.60;;;11.40;99.90;;;;;;4995408;28;20503;-75
2022/10/01 05:12:46;;;;;;;6.32;3.03;;;11.40;99.90;;;;;;4995124;28;20050;-74
2022/10/01 05:15:12;;;;;;;6.88;3.28;;;11.50;99.90;;;;;;4995722;28;20533;-79
2022/10/01 05:17:38;;;;;;;6.55;3.53;;;11.50;99.90;;;;;;4993972;28;20089;-74
2022/10/01 05:20:05;;;;;;;7.82;3.40;;;11.50;99.90;;;;;;4964455;28;20054;-80
2022/10/01 05:22:31;;;;;;;7.40;4.05;;;11.50;99.90;;;;;;5001739;28;20085;-75
2022/10/01 05:24:58;;;;;;;7.38;4.13;;;11.50;99.90;;;;;;5011465;28;20130;-80
2022/10/01 05:27:29;;;;;;;8.68;4.30;;;11.60;99.90;;;;;;5008244;28;20477;-79
2022/10/01 05:29:55;;;;;;;7.65;4.30;;;11.60;99.90;;;;;;5012929;28;20117;-76
2022/10/01 05:32:21;;;;;;;8.80;4.20;;;11.60;99.90;;;;;;4995573;28;20181;-71
2022/10/01 05:34:47;;;;;;;7.72;4.18;;;11.70;99.90;;;;;;4995797;28;20050;-77
2022/10/01 05:37:13;;;;;;;8.88;4.32;;;11.70;99.90;;;;;;4996334;28;20387;-81
2022/10/01 05:39:39;;;;;;;9.43;5.07;;;11.80;99.90;;;;;;4995206;28;20390;-72
2022/10/01 05:42:05;;;;;;;11.23;5.70;;;11.80;99.90;;;;;;4995608;28;20183;-79
2022/10/01 05:44:36;;;;;;;10.93;5.45;;;11.80;99.90;;;;;;4993821;28;20082;-77
2022/10/01 05:47:06;;;;;;;10.13;5.38;;;11.80;99.90;;;;;;4995309;28;20362;-78
2022/10/01 05:49:32;;;;;;;8.60;5.13;;;11.80;99.90;;;;;;5010056;28;20046;-77
2022/10/01 05:51:59;;;;;;;13.27;6.50;;;11.80;99.90;;;;;;4980818;28;20134;-79
2022/10/01 05:54:28;;;;;;;14.07;6.78;;;11.80;99.90;;;;;;4994734;28;20133;-74
2022/10/01 05:56:54;;;;;;;12.55;6.70;;;11.90;99.90;;;;;;4977382;28;20081;-76
2022/10/01 05:59:20;;;;;;;11.88;6.72;;;11.90;99.90;;;;;;4994881;28;20049;-74
2022/10/01 06:01:45;;;;;;;12.68;6.97;;;11.90;99.90;;;;;;4994386;28;20133;-75
2022/10/01 06:04:11;;;;;;;13.70;7.43;;;11.90;99.90;;;;;;4994760;28;20049;-74
2022/10/01 06:06:37;;;;;;;13.95;6.82;;;11.90;99.90;;;;;;4995061;28;20042;-75
2022/10/01 06:09:03;;;;;;;13.23;6.53;;;11.90;99.90;;;;;;4995483;28;20051;-82
2022/10/01 06:11:28;;;;;;;12.98;7.10;;;12.00;99.90;;;;;;4994859;28;20085;-77
2022/10/01 06:13:54;;;;;;;15.50;7.63;;;12.00;99.90;;;;;;4994745;28;20061;-78
2022/10/01 06:16:20;;;;;;;13.25;7.63;;;12.10;99.90;;;;;;4994118;28;20533;-80
2022/10/01 06:18:49;;;;;;;10.43;6.00;;;12.10;99.90;;;;;;4995709;28;20050;-78
2022/10/01 06:21:15;;;;;;;16.40;8.40;;;12.10;99.90;;;;;;4995378;28;20050;-78
2022/10/01 06:23:43;;;;;;;14.90;8.38;;;12.20;99.90;;;;;;4993716;28;20074;-79
2022/10/01 06:26:09;;;;;;;16.80;9.70;;;12.10;99.90;;;;;;4995187;28;20120;-74
2022/10/01 06:28:35;;;;;;;17.13;9.00;;;12.20;99.90;;;;;;4993356;28;20565;-77
2022/10/01 06:31:01;;;;;;;14.60;9.18;;;12.30;99.90;;;;;;4977834;28;20093;-78
2022/10/01 06:33:27;;;;;;;16.60;8.98;;;12.30;99.90;;;;;;4993892;28;20042;-78
2022/10/01 06:35:54;;;;;;;17.67;9.63;;;12.40;99.90;;;;;;4994443;28;20133;-74
2022/10/01 06:38:22;;;;;;;18.85;10.23;;;12.40;99.90;;;;;;4994347;28;20051;-78
2022/10/01 06:41:00;;;;;;;18.00;8.88;;;12.50;99.90;;;;;;4993625;28;20073;-73
2022/10/01 06:43:28;;;;;;;19.30;9.80;;;12.50;99.90;;;;;;4993225;28;20062;-75
2022/10/01 06:46:00;;;;;;;16.55;8.63;;;12.60;99.90;;;;;;4993943;28;20066;-74
2022/10/01 06:48:27;;;;;;;16.88;9.40;;;12.60;99.90;;;;;;4995417;28;20138;-77
2022/10/01 06:50:54;;;;;;;15.32;9.30;;;12.70;99.90;;;;;;4995713;28;20094;-75
2022/10/01 06:53:20;;;;;;;14.25;9.43;;;12.70;99.90;;;;;;4977301;28;20145;-76
2022/10/01 06:55:48;;;;;;;15.52;10.30;;;12.70;99.90;;;;;;4978676;28;20136;-77
2022/10/01 06:58:15;;;;;;;21.38;10.02;;;12.70;99.90;;;;;;4977914;28;20421;-79
2022/10/01 07:00:42;;;;;;;19.20;10.45;;;12.70;99.90;;;;;;4994775;28;20038;-76
2022/10/01 07:03:12;;;;;;;24.10;11.02;;;12.70;99.90;;;;;;4995542;28;20098;-77
2022/10/01 07:05:38;;;;;;;19.05;11.05;;;12.80;99.90;;;;;;4996359;28;20143;-76
2022/10/01 07:08:04;;;;;;;18.75;10.77;;;12.90;99.90;;;;;;4994970;28;20471;-78
2022/10/01 07:10:31;;;;;;;18.97;11.00;;;12.90;99.90;;;;;;4996863;28;20545;-76
2022/10/01 07:13:06;;;;;;;21.98;10.18;;;12.90;99.90;;;;;;4994205;28;20046;-75
2022/10/01 07:15:32;;;;;;;19.38;10.43;;;13.00;99.90;;;;;;4994371;28;20050;-75
2022/10/01 07:17:58;;;;;;;17.05;8.35;;;13.10;99.90;;;;;;4994123;28;20492;-73
2022/10/01 07:20:23;;;;;;;17.52;9.57;;;13.30;99.90;;;;;;4994216;28;20082;-76
2022/10/01 07:22:58;;;;;;;20.27;10.13;;;13.40;99.90;;;;;;4994329;28;20141;-76
2022/10/01 07:25:25;;;;;;;23.80;10.52;;;13.30;99.90;;;;;;4993686;28;20212;-76
2022/10/01 07:27:59;;;;;;;17.42;9.90;;;13.30;99.90;;;;;;4985308;28;20125;-75
2022/10/01 07:30:25;;;;;;;20.88;9.73;;;13.30;99.90;;;;;;4998793;28;20049;-75
2022/10/01 07:32:51;;;;;;;20.63;10.07;;;13.40;99.90;;;;;;5005377;28;20066;-79
2022/10/01 07:35:19;;;;;;;17.13;9.05;;;13.40;99.90;;;;;;4990988;28;20038;-79
2022/10/01 07:37:49;;;;;;;18.45;9.32;;;13.40;99.90;;;;;;5008245;28;20114;-75
2022/10/01 07:40:15;;;;;;;15.05;8.68;;;13.40;99.90;;;;;;5023567;28;20050;-77
2022/10/01 07:42:41;;;;;;;21.88;9.68;;;13.40;99.90;;;;;;5011366;28;20395;-76
2022/10/01 07:45:08;;;;;;;19.63;8.85;;;13.50;99.90;;;;;;5010437;28;20058;-80
2022/10/01 07:47:33;;;;;;;17.00;9.82;;;13.60;99.90;;;;;;5002674;28;20046;-77
2022/10/01 07:49:59;;;;;;;17.58;8.75;;;13.70;99.90;;;;;;5000586;28;20140;-77
2022/10/01 07:52:25;;;;;;;20.35;8.68;;;13.70;99.90;;;;;;4998970;28;20061;-76
2022/10/01 07:54:51;;;;;;;21.30;9.13;;;13.80;99.90;;;;;;4999944;28;20130;-77
2022/10/01 07:57:16;;;;;;;19.90;9.77;;;13.80;99.90;;;;;;4999290;28;20552;-75
2022/10/01 07:59:42;;;;;;;20.27;8.52;;;13.90;99.90;;;;;;4998784;28;20057;-75
2022/10/01 08:02:15;;;;;;;24.17;8.57;;;13.90;99.90;;;;;;4996880;28;20050;-76
2022/10/01 08:07:26;;;;;;;18.55;8.90;;;14.00;99.90;;;;;;4999412;28;20117;-76
2022/10/01 08:09:52;;;;;;;15.27;8.40;;;14.10;99.90;;;;;;4998390;28;20549;-75
2022/10/01 08:12:18;;;;;;;18.50;7.97;;;14.10;99.90;;;;;;4999823;28;20129;-76
2022/10/01 08:14:46;;;;;;;21.17;7.38;;;14.20;99.90;;;;;;5002340;28;20054;-76
2022/10/01 08:17:15;;;;;;;16.38;7.22;;;14.20;99.90;;;;;;4997283;28;20218;-76
2022/10/01 08:19:41;;;;;;;18.42;6.72;;;14.20;99.90;;;;;;4999648;28;20042;-78
2022/10/01 08:22:07;;;;;;;21.80;6.55;;;14.30;99.90;;;;;;4986397;28;20054;-80
2022/10/01 08:24:36;;;;;;;16.27;5.43;;;14.40;99.90;;;;;;5008992;28;20403;-76
2022/10/01 08:27:01;;;;;;;15.30;5.22;;;14.50;99.90;;;;;;5000751;28;20505;-79
2022/10/01 08:29:27;;;;;;;17.92;4.75;;;14.60;99.90;;;;;;4997108;28;20042;-78
2022/10/01 08:31:53;;;;;;;14.30;4.55;;;14.70;99.90;;;;;;4997727;28;20137;-76
2022/10/01 08:34:18;;;;;;;15.85;4.25;;;14.80;99.90;;;;;;4996825;28;20054;-78
2022/10/01 08:36:44;;;;;;;16.55;4.18;;;15.00;99.90;;;;;;4997128;28;20111;-79
2022/10/01 08:39:12;;;;;;;14.77;4.55;;;15.00;99.90;;;;;;4997347;28;20130;-76
2022/10/01 08:41:48;;;;;;;16.83;3.90;;;15.10;99.90;;;;;;5013837;28;20106;-83
2022/10/01 08:44:30;;;;;;;15.43;3.78;;;15.20;99.90;;;;;;5012908;28;20042;-76
2022/10/01 08:47:02;;;;;;;15.13;4.00;;;15.30;99.90;;;;;;4998379;28;20046;-77
2022/10/01 08:49:39;;;;;;;23.65;4.53;;;15.40;99.90;;;;;;5000187;28;20038;-77
2022/10/01 08:52:32;;;;;;;17.25;3.92;;;15.50;99.90;;;;;;4996958;28;20054;-77
2022/10/01 08:55:02;;;;;;;9.85;3.05;;;15.70;99.90;;;;;;4996658;28;20050;-77
2022/10/01 08:57:36;;;;;;;14.00;3.20;;;15.80;99.90;;;;;;4999025;28;20085;-76
2022/10/01 09:00:09;;;;;;;18.77;3.03;;;16.00;99.90;;;;;;4998199;28;20202;-76
2022/10/01 09:02:38;;;;;;;15.70;3.15;;;16.10;99.90;;;;;;4981622;28;20058;-78
2022/10/01 09:05:19;;;;;;;11.88;2.50;;;16.10;99.90;;;;;;4997902;28;20489;-82
2022/10/01 09:07:58;;;;;;;14.30;2.47;;;16.20;99.90;;;;;;4999308;28;20081;-78
2022/10/01 09:10:39;;;;;;;14.95;2.40;;;16.20;99.90;;;;;;4997994;28;20046;-76
2022/10/01 09:13:17;;;;;;;14.02;2.33;;;16.10;99.90;;;;;;4998659;28;20050;-77
2022/10/01 09:16:01;;;;;;;12.30;2.15;;;16.00;99.90;;;;;;4998180;28;20054;-76
2022/10/01 09:18:38;;;;;;;9.10;1.83;;;15.80;99.90;;;;;;5002655;28;20046;-81
2022/10/01 09:21:26;;;;;;;14.32;1.20;;;15.80;99.90;;;;;;5007462;28;20082;-78
2022/10/01 09:27:35;;;;;;;7.15;1.90;;;15.80;99.90;;;;;;5011508;28;20069;-76
2022/10/01 09:30:10;;;;;;;14.75;1.85;;;16.10;99.90;;;;;;5025314;28;20027;-75
2022/10/01 09:32:44;;;;;;;10.80;1.52;;;16.20;99.90;;;;;;5008645;28;20080;-78
2022/10/01 09:35:26;;;;;;;8.52;1.10;;;16.30;99.90;;;;;;5011146;28;20131;-77
2022/10/01 09:37:56;;;;;;;16.05;1.52;;;16.20;99.90;;;;;;5008046;28;20363;-76
2022/10/01 09:40:37;;;;;;;9.52;1.17;;;16.20;99.90;;;;;;5007530;28;20070;-77
2022/10/01 09:43:06;;;;;;;14.90;1.40;;;16.10;99.90;;;;;;5006410;28;20069;-79
2022/10/01 09:45:33;;;;;;;10.82;1.23;;;16.00;99.90;;;;;;5008758;28;20172;-77
2022/10/01 09:48:13;;;;;;;9.20;0.95;;;15.90;99.90;;;;;;5006680;28;20482;-78
2022/10/01 09:50:43;;;;;;;9.95;1.15;;;16.10;99.90;;;;;;5007955;28;20056;-81
2022/10/01 09:53:16;;;;;;;9.63;0.93;;;16.10;99.90;;;;;;5006287;28;20054;-79
2022/10/01 09:55:46;;;;;;;7.47;0.80;;;16.20;99.90;;;;;;5002822;28;20050;-77
2022/10/01 09:58:23;;;;;;;12.15;0.80;;;16.20;99.90;;;;;;4998700;28;20124;-81
2022/10/01 10:00:50;;;;;;;9.77;1.10;;;16.30;99.90;;;;;;5016628;28;20116;-80
2022/10/01 10:03:29;;;;;;;14.18;1.02;;;16.50;99.90;;;;;;5004696;28;20106;-78
2022/10/01 10:05:58;;;;;;;12.00;1.23;;;16.50;99.90;;;;;;5004801;28;20511;-81
2022/10/01 10:08:35;;;;;;;7.72;0.90;;;16.50;99.90;;;;;;5005350;28;20055;-77
2022/10/01 10:11:04;;;;;;;14.25;1.65;;;16.40;99.90;;;;;;5004320;28;20042;-75
2022/10/01 10:13:40;;;;;;;12.02;1.80;;;16.30;99.90;;;;;;5006359;28;20076;-75
2022/10/01 10:16:23;;;;;;;16.15;2.08;;;16.30;99.90;;;;;;5006102;28;20061;-76
2022/10/01 10:18:52;;;;;;;12.30;1.92;;;16.30;99.90;;;;;;4981696;28;20057;-78
2022/10/01 10:21:26;;;;;;;15.98;2.13;;;16.50;99.90;;;;;;4996870;28;20050;-78
2022/10/01 10:23:54;;;;;;;9.77;1.77;;;16.50;99.90;;;;;;4999316;28;20058;-80
2022/10/01 10:26:27;;;;;;;17.92;1.95;;;16.60;99.90;;;;;;4998243;28;20049;-75
2022/10/01 10:28:55;;;;;;;21.08;1.75;;;16.80;99.90;;;;;;4997715;28;20038;-77
2022/10/01 10:31:26;;;;;;;10.63;2.10;;;17.10;99.90;;;;;;4999132;28;20050;-77
2022/10/01 10:34:12;;;;;;;16.35;1.83;;;17.20;99.90;;;;;;4997936;28;20062;-73
2022/10/01 10:36:39;;;;;;;18.73;2.33;;;17.30;99.90;;;;;;4997753;28;20386;-75
2022/10/01 10:39:16;;;;;;;16.45;2.28;;;16.90;99.90;;;;;;4994610;28;20176;-76
2022/10/01 10:41:45;;;;;;;19.30;2.50;;;16.50;99.90;;;;;;4995007;28;20065;-73
2022/10/01 10:44:12;;;;;;;18.65;2.05;;;;;;;;;;4993939;28;20049;-74
2022/10/01 10:46:38;;;;;;;10.73;1.20;;;15.40;99.90;;;;;;4993749;28;20054;-73
2022/10/01 10:49:36;;;;;;;11.40;1.50;;;15.40;99.90;;;;;;4993945;28;20046;-72
2022/10/01 10:52:23;;;;;;;10.20;2.45;;;15.30;99.90;;;;;;4993732;28;20046;-73
2022/10/01 10:54:51;;;;;;;14.18;2.40;;;15.20;99.90;;;;;;4993781;28;20089;-70
2022/10/01 10:57:29;;;;;;;14.05;1.30;;;15.20;99.90;;;;;;4994018;28;20046;-73
2022/10/01 11:00:22;;;;;;;10.52;1.00;;;15.20;99.90;;;;;;4977156;28;20058;-73
2022/10/01 11:02:59;;;;;;;11.15;1.42;;;15.40;99.90;;;;;;4992528;28;20103;-70
2022/10/01 11:05:30;;;;;;;9.95;1.20;;;15.60;99.90;;;;;;5009191;28;20478;-74
2022/10/01 11:07:59;;;;;;;10.40;1.45;;;15.60;99.90;;;;;;4994001;28;20097;-73
2022/10/01 11:10:40;;;;;;;5.53;0.68;;;15.70;99.90;;;;;;4993628;28;20054;-72
2022/10/01 11:13:38;;;;;;;9.48;0.70;;;15.40;99.90;;;;;;5009069;28;20384;-75
2022/10/01 11:16:13;;;;;;;11.38;1.10;;;15.50;99.90;;;;;;4993728;28;20050;-73
2022/10/01 11:18:54;;;;;;;12.35;1.05;;;15.20;99.90;;;;;;4977988;28;20051;-76
2022/10/01 11:21:47;;;;;;;9.75;1.05;;;15.00;99.90;;;;;;4994360;28;20184;-75
2022/10/01 11:24:39;;;;;;;15.27;1.27;;;14.50;99.90;;;;;;5004437;28;20085;-72
2022/10/01 11:27:16;;;;;;;6.38;0.68;;;14.20;99.90;;;;;;5000139;28;20053;-71
2022/10/01 11:29:47;;;;;;;11.60;1.17;;;13.90;99.90;;;;;;4993527;28;20053;-72
2022/10/01 11:32:24;;;;;;;11.55;1.02;;;13.80;99.90;;;;;;4993323;28;20129;-73
2022/10/01 11:35:25;;;;;;;6.85;0.80;;;13.60;99.90;;;;;;4994107;28;20058;-74
2022/10/01 11:37:57;;;;;;;11.40;1.00;;;13.50;99.90;;;;;;4993498;28;20042;-76
2022/10/01 11:40:38;;;;;;;11.15;1.00;;;13.40;99.90;;;;;;4993097;28;20061;-75
2022/10/01 11:43:26;;;;;;;10.35;1.17;;;13.50;99.90;;;;;;4993165;28;20507;-73
2022/10/01 11:46:04;;;;;;;14.05;1.38;;;13.40;99.90;;;;;;4993596;28;20124;-76
2022/10/01 11:48:38;;;;;;;12.25;1.48;;;13.30;99.90;;;;;;5009500;28;20058;-74
2022/10/01 11:51:13;;;;;;;10.30;1.30;;;13.30;99.90;;;;;;4992829;28;20050;-75
2022/10/01 11:53:53;;;;;;;14.40;1.77;;;13.30;99.90;;;;;;4993988;28;20059;-78
2022/10/01 12:03:00;;;;;;;14.30;1.70;;;13.70;99.90;;;;;;4997180;28;20121;-77
2022/10/01 12:05:30;;;;;;;11.15;1.60;;;13.90;99.90;;;;;;4993693;28;20050;-75
2022/10/01 12:08:24;;;;;;;13.70;1.73;;;14.00;99.90;;;;;;4993727;28;20055;-78
2022/10/01 12:10:53;;;;;;;15.13;1.60;;;14.10;99.90;;;;;;4994152;28;20097;-78
2022/10/01 12:13:51;;;;;;;15.20;1.77;;;14.20;99.90;;;;;;4996791;28;20125;-74
2022/10/01 12:16:55;;;;;;;13.18;2.03;;;14.40;99.90;;;;;;4990068;28;20094;-76
2022/10/01 12:19:35;;;;;;;14.45;1.92;;;14.80;99.90;;;;;;4974920;28;20089;-77
2022/10/01 12:22:10;;;;;;;24.05;2.17;;;15.00;99.90;;;;;;4994366;28;20046;-78
2022/10/01 12:24:40;;;;;;;13.77;1.67;;;15.20;99.90;;;;;;4997587;28;20053;-79
2022/10/01 12:27:14;;;;;;;16.75;1.20;;;15.40;99.90;;;;;;4995998;28;20078;-72
2022/10/01 12:29:59;;;;;;;16.98;1.90;;;15.50;99.90;;;;;;4998740;28;20085;-76
2022/10/01 12:33:03;;;;;;;16.77;1.85;;;15.00;99.90;;;;;;4998607;28;20046;-74
2022/10/01 12:35:35;;;;;;;12.05;1.88;;;15.00;99.90;;;;;;4999389;28;20050;-74
2022/10/01 12:38:26;;;;;;;20.15;1.77;;;14.70;99.90;;;;;;4997217;28;20140;-77
2022/10/01 12:41:18;;;;;;;17.17;2.08;;;14.50;99.90;;;;;;5002841;28;20427;-73
2022/10/01 12:44:01;;;;;;;17.10;1.75;;;14.20;99.90;;;;;;4996172;28;20047;-74
2022/10/01 12:46:45;;;;;;;22.42;2.05;;;14.00;99.90;;;;;;5000001;28;20050;-76
2022/10/01 12:49:30;;;;;;;19.35;2.33;;;14.00;99.90;;;;;;5004343;28;20032;-73
2022/10/01 12:52:32;;;;;;;22.48;2.20;;;13.90;99.90;;;;;;5019500;28;20047;-74
2022/10/01 12:55:28;;;;;;;20.67;2.30;;;13.90;99.90;;;;;;5002930;28;20050;-75
2022/10/01 12:58:07;;;;;;;19.77;1.90;;;14.00;99.90;;;;;;5001994;28;20049;-72
2022/10/01 13:00:57;;;;;;;16.25;1.70;;;14.00;99.90;;;;;;5001882;28;20286;-74
2022/10/01 13:03:45;;;;;;;19.88;1.83;;;13.90;99.90;;;;;;5016901;28;20046;-79
2022/10/01 13:06:37;;;;;;;14.63;2.05;;;13.80;99.90;;;;;;5008934;28;20073;-75
2022/10/01 13:09:26;;;;;;;19.45;2.03;;;13.90;99.90;;;;;;5009240;28;20312;-74
2022/10/01 13:12:11;;;;;;;24.13;2.60;;;14.00;99.90;;;;;;4984481;28;20068;-71
2022/10/01 13:14:43;;;;;;;14.98;1.65;;;14.20;99.90;;;;;;4995499;28;20486;-74
2022/10/01 13:17:18;;;;;;;23.65;2.10;;;14.30;99.90;;;;;;4995623;28;20545;-73
2022/10/01 13:19:56;;;;;;;22.88;2.38;;;14.40;99.90;;;;;;5010744;28;20074;-75